createdAt,value
2022-10-03T00:00:12.091Z,2.40
2022-10-03T00:05:12.472Z,2.67
2022-10-03T00:10:28.185Z,2.83
2022-10-03T00:15:33.797Z,3.25
2022-10-03T00:21:02.618Z,3.83
2022-10-03T00:26:28.931Z,3.15
2022-10-03T00:31:26.289Z,2.20
2022-10-03T00:36:30.959Z,1.80
2022-10-03T00:41:48.117Z,2.63
2022-10-03T00:46:59.878Z,1.83
2022-10-03T00:52:07.098Z,2.40
2022-10-03T00:57:15.704Z,2.33
2022-10-03T01:02:20.939Z,2.58
2022-10-03T01:07:43.289Z,2.95
2022-10-03T01:12:45.508Z,2.65
2022-10-03T01:18:00.215Z,2.95
2022-10-03T01:23:20.255Z,5.15
2022-10-03T01:28:53.120Z,4.78
2022-10-03T01:33:54.872Z,4.63
2022-10-03T01:39:10.027Z,4.60
2022-10-03T01:44:13.439Z,4.47
2022-10-03T01:49:06.388Z,4.43
2022-10-03T01:54:19.543Z,3.97
2022-10-03T01:59:23.858Z,3.42
2022-10-03T02:04:16.870Z,3.90
2022-10-03T02:09:31.993Z,4.55
2022-10-03T02:14:49.657Z,4.22
2022-10-03T02:19:52.468Z,4.30
2022-10-03T02:25:06.421Z,4.72
2022-10-03T02:30:05.607Z,5.30
2022-10-03T02:40:23.829Z,5.93
2022-10-03T02:45:23.324Z,7.25
2022-10-03T02:56:15.037Z,6.57
2022-10-03T03:01:46.797Z,6.38
2022-10-03T03:06:54.100Z,6.13
2022-10-03T03:12:20.568Z,5.88
2022-10-03T03:17:45.615Z,4.90
2022-10-03T03:22:57.684Z,3.50
2022-10-03T03:28:13.232Z,4.05
2022-10-03T03:33:13.152Z,4.95
2022-10-03T03:38:34.036Z,4.97
2022-10-03T03:43:45.168Z,5.32
2022-10-03T03:49:00.852Z,3.90
2022-10-03T03:54:15.121Z,4.97
2022-10-03T03:59:15.393Z,3.58
2022-10-03T04:04:29.008Z,3.67
2022-10-03T04:09:39.155Z,3.17
2022-10-03T04:15:03.899Z,3.80
2022-10-03T04:20:19.004Z,3.50
2022-10-03T04:25:24.685Z,3.40
2022-10-03T04:30:21.832Z,3.20
2022-10-03T04:35:33.189Z,3.10
2022-10-03T04:40:50.238Z,2.85
2022-10-03T04:46:18.589Z,3.00
2022-10-03T04:51:40.580Z,3.15
2022-10-03T04:56:50.819Z,3.03
2022-10-03T05:01:46.260Z,3.53
2022-10-03T05:07:05.751Z,2.72
2022-10-03T05:12:17.592Z,2.30
2022-10-03T05:17:43.882Z,2.60
2022-10-03T05:23:01.300Z,2.35
2022-10-03T05:28:11.080Z,2.45
2022-10-03T05:33:15.225Z,2.83
2022-10-03T05:38:16.364Z,4.13
2022-10-03T05:43:36.948Z,4.85
2022-10-03T05:48:49.184Z,5.88
2022-10-03T05:53:51.347Z,7.00
2022-10-03T05:58:54.964Z,6.95
2022-10-03T06:03:50.409Z,7.45
2022-10-03T06:08:48.931Z,7.35
2022-10-03T06:13:54.360Z,7.35
2022-10-03T06:18:56.858Z,5.78
2022-10-03T06:23:52.205Z,5.65
2022-10-03T06:28:54.244Z,5.25
2022-10-03T06:33:52.594Z,5.82
2022-10-03T06:39:13.896Z,5.45
2022-10-03T06:44:31.640Z,5.28
2022-10-03T06:49:37.493Z,4.10
2022-10-03T06:54:45.938Z,4.15
2022-10-03T06:59:45.343Z,3.83
2022-10-03T07:05:20.456Z,4.22
2022-10-03T07:10:44.696Z,3.80
2022-10-03T07:16:21.075Z,3.65
2022-10-03T07:21:41.076Z,4.75
2022-10-03T07:27:05.300Z,5.10
2022-10-03T07:32:33.173Z,5.10
2022-10-03T07:38:03.995Z,5.78
2022-10-03T07:43:18.810Z,4.35
2022-10-03T07:48:48.823Z,4.50
2022-10-03T07:53:48.211Z,5.80
2022-10-03T07:59:05.941Z,7.60
2022-10-03T08:04:22.874Z,4.22
2022-10-03T08:09:55.027Z,4.22
2022-10-03T08:14:58.735Z,4.40
2022-10-03T08:20:06.907Z,3.70
2022-10-03T08:25:18.936Z,3.22
2022-10-03T08:30:31.543Z,4.25
2022-10-03T08:36:09.913Z,4.60
2022-10-03T08:41:34.394Z,4.03
2022-10-03T08:46:52.376Z,3.30
2022-10-03T08:52:20.573Z,3.23
2022-10-03T08:57:40.823Z,4.03
2022-10-03T09:02:46.236Z,4.53
2022-10-03T09:07:58.292Z,3.42
2022-10-03T09:13:10.037Z,3.45
2022-10-03T09:18:06.069Z,3.42
2022-10-03T09:23:07.853Z,3.17
2022-10-03T09:28:28.722Z,3.92
2022-10-03T09:33:40.202Z,3.22
2022-10-03T09:39:14.431Z,3.17
2022-10-03T09:44:29.510Z,2.80
2022-10-03T09:49:37.269Z,2.65
2022-10-03T09:54:36.273Z,2.75
2022-10-03T09:59:49.145Z,3.90
2022-10-03T10:05:03.326Z,2.47
2022-10-03T10:10:02.611Z,2.40
2022-10-03T10:15:17.300Z,2.95
2022-10-03T10:20:30.745Z,2.72
2022-10-03T10:25:43.306Z,2.03
2022-10-03T10:31:05.748Z,3.40
2022-10-03T10:36:17.909Z,2.38
2022-10-03T10:41:37.968Z,2.28
2022-10-03T10:47:03.086Z,2.30
2022-10-03T10:52:23.859Z,2.90
2022-10-03T10:57:58.631Z,2.20
2022-10-03T11:03:13.367Z,2.60
2022-10-03T11:08:15.392Z,1.90
2022-10-03T11:13:31.078Z,2.00
2022-10-03T11:18:59.649Z,1.90
2022-10-03T11:23:57.906Z,2.10
2022-10-03T11:29:29.204Z,2.13
2022-10-03T11:34:58.586Z,1.60
2022-10-03T11:40:33.339Z,1.83
2022-10-03T11:45:44.803Z,2.08
2022-10-03T11:50:50.116Z,2.08
2022-10-03T11:56:06.104Z,2.28
2022-10-03T12:01:38.282Z,2.25
2022-10-03T12:07:33.379Z,2.20
2022-10-03T12:12:42.787Z,3.70
2022-10-03T12:17:38.394Z,2.75
2022-10-03T12:23:09.496Z,2.67
2022-10-03T12:28:05.481Z,2.53
2022-10-03T12:33:24.069Z,2.05
2022-10-03T12:38:20.066Z,2.50
2022-10-03T12:43:25.179Z,3.58
2022-10-03T12:48:48.759Z,3.97
2022-10-03T12:53:45.719Z,2.33
2022-10-03T12:58:48.761Z,2.95
2022-10-03T13:03:55.322Z,3.55
2022-10-03T13:09:15.177Z,3.97
2022-10-03T13:14:28.024Z,3.00
2022-10-03T13:19:25.634Z,2.42
2022-10-03T13:25:04.601Z,2.25
2022-10-03T13:30:14.648Z,2.95
2022-10-03T13:35:40.987Z,2.70
2022-10-03T13:41:21.993Z,2.30
2022-10-03T13:46:28.921Z,1.95
2022-10-03T13:51:59.425Z,2.20
2022-10-03T13:57:45.980Z,1.65
2022-10-03T14:02:54.153Z,1.70
2022-10-03T14:08:22.150Z,2.00
2022-10-03T14:13:53.875Z,2.22
2022-10-03T14:19:42.490Z,2.50
2022-10-03T14:24:56.592Z,2.03
2022-10-03T14:30:10.780Z,2.20
2022-10-03T14:35:42.320Z,3.00
2022-10-03T14:40:55.455Z,2.90
2022-10-03T14:45:59.982Z,2.22
2022-10-03T14:51:45.060Z,2.08
2022-10-03T14:57:07.063Z,2.80
2022-10-03T15:02:31.002Z,3.17
2022-10-03T15:08:12.532Z,2.80
2022-10-03T15:13:10.346Z,2.63
2022-10-03T15:18:09.152Z,2.65
2022-10-03T15:23:08.781Z,2.90
2022-10-03T15:28:14.648Z,2.88
2022-10-03T15:33:48.053Z,2.38
2022-10-03T15:38:45.767Z,2.58
2022-10-03T15:44:06.555Z,2.25
2022-10-03T15:49:45.401Z,2.80
2022-10-03T15:54:48.568Z,2.22
2022-10-03T15:59:47.560Z,2.92
2022-10-03T16:04:50.461Z,3.10
2022-10-03T16:10:07.616Z,2.73
2022-10-03T16:15:48.808Z,2.80
2022-10-03T16:21:19.669Z,2.92
2022-10-03T16:26:49.273Z,2.78
2022-10-03T16:32:08.798Z,2.20
2022-10-03T16:37:03.508Z,3.58
2022-10-03T16:41:57.433Z,2.58
2022-10-03T16:46:51.797Z,2.35
2022-10-03T16:51:52.907Z,2.47
2022-10-03T16:56:48.835Z,2.65
2022-10-03T17:01:47.463Z,2.65
2022-10-03T17:06:40.634Z,2.42
2022-10-03T17:11:38.060Z,2.55
2022-10-03T17:16:34.443Z,3.25
2022-10-03T17:21:31.611Z,3.20
2022-10-03T17:26:33.978Z,3.10
2022-10-03T17:31:58.634Z,2.70
2022-10-03T17:37:21.784Z,4.78
2022-10-03T17:42:29.841Z,3.42
2022-10-03T17:48:05.739Z,4.18
2022-10-03T17:53:00.727Z,3.47
2022-10-03T17:58:17.717Z,4.75
2022-10-03T18:03:54.326Z,4.38
2022-10-03T18:09:27.254Z,4.70
2022-10-03T18:14:51.605Z,4.35
2022-10-03T18:19:53.336Z,4.35
2022-10-03T18:24:59.762Z,4.60
2022-10-03T18:29:59.881Z,4.15
2022-10-03T18:35:01.399Z,4.57
2022-10-03T18:39:56.436Z,4.45
2022-10-03T18:44:50.293Z,4.53
2022-10-03T18:49:48.725Z,4.30
2022-10-03T19:00:02.652Z,4.22
2022-10-03T19:05:14.197Z,4.72
2022-10-03T19:10:33.593Z,4.85
2022-10-03T19:15:43.521Z,3.97
2022-10-03T19:20:42.296Z,3.85
2022-10-03T19:25:37.898Z,4.00
2022-10-03T19:30:31.782Z,4.43
2022-10-03T19:35:26.168Z,4.68
2022-10-03T19:40:42.995Z,6.05
2022-10-03T19:45:53.683Z,5.22
2022-10-03T19:50:47.721Z,6.63
2022-10-03T19:55:41.732Z,5.68
2022-10-03T20:00:37.704Z,5.13
2022-10-03T20:05:38.453Z,5.45
2022-10-03T20:10:48.183Z,6.05
2022-10-03T20:15:47.927Z,7.40
2022-10-03T20:20:41.908Z,5.68
2022-10-03T20:25:36.612Z,8.18
2022-10-03T20:30:46.391Z,8.20
2022-10-03T20:35:42.553Z,6.03
2022-10-03T20:40:39.394Z,5.65
2022-10-03T20:45:37.094Z,6.30
2022-10-03T20:50:43.211Z,6.55
2022-10-03T20:56:05.235Z,5.78
2022-10-03T21:01:19.575Z,5.97
2022-10-03T21:06:37.564Z,5.30
2022-10-03T21:11:32.655Z,5.47
2022-10-03T21:16:32.007Z,6.47
2022-10-03T21:21:38.428Z,6.55
2022-10-03T21:26:49.912Z,5.20
2022-10-03T21:32:10.841Z,6.15
2022-10-03T21:37:03.672Z,6.07
2022-10-03T21:42:12.375Z,5.32
2022-10-03T21:47:21.972Z,6.47
2022-10-03T21:52:20.067Z,6.05
2022-10-03T22:02:45.879Z,6.13
2022-10-03T22:07:43.667Z,6.30
2022-10-03T22:12:44.532Z,6.68
2022-10-03T22:18:00.024Z,7.13
2022-10-03T22:22:55.829Z,6.88
2022-10-03T22:28:24.392Z,5.50
2022-10-03T22:33:26.073Z,6.47
2022-10-03T22:38:23.058Z,7.32
2022-10-03T22:43:17.376Z,7.03
2022-10-03T22:48:18.780Z,6.60
2022-10-03T22:53:16.403Z,8.50
2022-10-03T22:58:10.453Z,7.78
2022-10-03T23:03:17.392Z,7.38
2022-10-03T23:08:25.347Z,7.07
2022-10-03T23:13:24.789Z,9.40
2022-10-03T23:18:24.972Z,8.10
2022-10-03T23:23:34.695Z,9.30
2022-10-03T23:28:32.030Z,8.52
2022-10-03T23:33:33.709Z,9.75
2022-10-03T23:38:32.275Z,9.88
2022-10-03T23:48:25.884Z,11.95
2022-10-03T23:53:32.349Z,11.93
2022-10-03T23:58:29.719Z,11.15
